Portada
METAR-TAF:

METAR-TAF

Aeroports :

Agartala, Índia

latitud: 23-53-24N, longitud: 91-14-32E, altitud: 14 m

Observació

L'informe es va fer fa 6 hores i 32 minuts, a les 14:00 UTC
Vent calma
Temperatura 28°C
Humitat 84%
Pressió 1013 hPa
Visibilitat: 6000 m
Escasses núvols a una alçada de 2000 ft
Escasses núvols a una alçada de 3000 ft, Cumulonimbus.
Núvols disperses a una alçada de 10000 ft

METAR: VEAT 211400Z 00000KT 6000 FEW020 FEW030CB SCT100 28/25 Q1013 NOSIG

Hora: 02:02 (20:32 UTC)


TAF: manca

Observacions i pronòstics meteorològics de més de 4000 aeroports (METAR i TAF).

Les estacions disponibles són els punts grocs i vermells al mapa.

Posi el ratolí al punt desitjat per veure el nom de l'estació.

Feu clic per veure les observacions i els pronòstics meteorològics.

Per canviar el mapa: feu clic els botons verds amb una creu de color negre per apropar; al botó verd amb un guió per allunyar la imatge; o en les fletxes verdes per a mapes adjacents.


METAR-TAF: